sensor_id;sensor_type;location;lat;lon;timestamp;pressure;altitude;pressure_sealevel;temperature;humidity
20105;BME280;10212;42.714;23.310;2023-02-16T00:03:44;96447.09;;;-2.63;97.17
20105;BME280;10212;42.714;23.310;2023-02-16T00:13:45;96454.34;;;-2.56;98.40
20105;BME280;10212;42.714;23.310;2023-02-16T00:23:48;96446.41;;;-2.51;98.30
20105;BME280;10212;42.714;23.310;2023-02-16T00:33:49;96445.81;;;-2.71;98.51
20105;BME280;10212;42.714;23.310;2023-02-16T00:43:49;96441.13;;;-2.79;97.95
20105;BME280;10212;42.714;23.310;2023-02-16T00:53:50;96437.63;;;-2.92;98.67
20105;BME280;10212;42.714;23.310;2023-02-16T01:03:50;96438.97;;;-3.01;99.51
20105;BME280;10212;42.714;23.310;2023-02-16T01:13:52;96435.66;;;-3.03;99.60
20105;BME280;10212;42.714;23.310;2023-02-16T01:23:53;96419.69;;;-3.23;100.00
20105;BME280;10212;42.714;23.310;2023-02-16T01:33:53;96406.84;;;-3.21;100.00
20105;BME280;10212;42.714;23.310;2023-02-16T01:43:58;96402.84;;;-3.42;100.00
20105;BME280;10212;42.714;23.310;2023-02-16T01:54:37;96395.34;;;-3.45;100.00
20105;BME280;10212;42.714;23.310;2023-02-16T02:04:48;96399.78;;;-3.32;100.00
20105;BME280;10212;42.714;23.310;2023-02-16T02:15:10;96391.25;;;-3.31;100.00
20105;BME280;10212;42.714;23.310;2023-02-16T02:35:52;96381.34;;;-3.37;100.00
20105;BME280;10212;42.714;23.310;2023-02-16T02:46:07;96392.16;;;-3.48;100.00
20105;BME280;10212;42.714;23.310;2023-02-16T02:56:10;96403.50;;;-3.54;100.00
20105;BME280;10212;42.714;23.310;2023-02-16T03:06:35;96394.38;;;-3.75;99.70
20105;BME280;10212;42.714;23.310;2023-02-16T03:16:43;96394.84;;;-4.00;100.00
20105;BME280;10212;42.714;23.310;2023-02-16T03:26:45;96393.03;;;-3.98;100.00
20105;BME280;10212;42.714;23.310;2023-02-16T03:37:12;96390.72;;;-4.03;100.00
20105;BME280;10212;42.714;23.310;2023-02-16T03:47:39;96395.50;;;-3.96;100.00
20105;BME280;10212;42.714;23.310;2023-02-16T03:57:40;96394.31;;;-4.23;100.00
20105;BME280;10212;42.714;23.310;2023-02-16T04:07:40;96392.56;;;-4.56;100.00
20105;BME280;10212;42.714;23.310;2023-02-16T04:17:41;96386.25;;;-4.67;100.00
20105;BME280;10212;42.714;23.310;2023-02-16T04:27:42;96384.25;;;-4.78;100.00
20105;BME280;10212;42.714;23.310;2023-02-16T04:37:42;96376.81;;;-4.82;100.00
20105;BME280;10212;42.714;23.310;2023-02-16T04:47:43;96382.06;;;-4.86;100.00
20105;BME280;10212;42.714;23.310;2023-02-16T04:57:43;96391.34;;;-5.02;100.00
20105;BME280;10212;42.714;23.310;2023-02-16T05:07:44;96402.38;;;-5.21;100.00
20105;BME280;10212;42.714;23.310;2023-02-16T05:17:44;96412.41;;;-5.18;100.00
20105;BME280;10212;42.714;23.310;2023-02-16T05:27:45;96410.28;;;-5.08;100.00
20105;BME280;10212;42.714;23.310;2023-02-16T05:37:45;96416.34;;;-4.93;100.00
20105;BME280;10212;42.714;23.310;2023-02-16T05:47:46;96425.06;;;-4.79;100.00
20105;BME280;10212;42.714;23.310;2023-02-16T05:57:46;96426.53;;;-4.57;100.00
20105;BME280;10212;42.714;23.310;2023-02-16T06:07:46;96439.84;;;-4.17;99.85
20105;BME280;10212;42.714;23.310;2023-02-16T06:17:47;96440.59;;;-3.81;99.57
20105;BME280;10212;42.714;23.310;2023-02-16T06:27:47;96452.91;;;-3.89;100.00
20105;BME280;10212;42.714;23.310;2023-02-16T06:37:49;96467.31;;;-3.72;99.77
20105;BME280;10212;42.714;23.310;2023-02-16T06:47:50;96463.56;;;-3.65;99.31
20105;BME280;10212;42.714;23.310;2023-02-16T06:57:50;96454.03;;;-3.61;100.00
20105;BME280;10212;42.714;23.310;2023-02-16T07:07:51;96449.25;;;-3.19;99.18
20105;BME280;10212;42.714;23.310;2023-02-16T07:17:52;96439.41;;;-2.78;98.44
20105;BME280;10212;42.714;23.310;2023-02-16T07:27:52;96429.81;;;-2.44;97.55
20105;BME280;10212;42.714;23.310;2023-02-16T07:37:53;96424.19;;;-1.90;94.21
20105;BME280;10212;42.714;23.310;2023-02-16T07:47:54;96430.59;;;-1.54;92.98
20105;BME280;10212;42.714;23.310;2023-02-16T07:57:54;96428.34;;;-1.31;92.20
20105;BME280;10212;42.714;23.310;2023-02-16T08:07:59;96425.25;;;-1.08;91.48
20105;BME280;10212;42.714;23.310;2023-02-16T08:17:59;96434.13;;;-0.87;91.57
20105;BME280;10212;42.714;23.310;2023-02-16T08:27:59;96439.44;;;-0.62;90.98
20105;BME280;10212;42.714;23.310;2023-02-16T08:38:00;96439.56;;;-0.25;89.65
20105;BME280;10212;42.714;23.310;2023-02-16T08:48:01;96431.56;;;-0.07;88.67
20105;BME280;10212;42.714;23.310;2023-02-16T08:58:02;96422.41;;;0.41;87.72
20105;BME280;10212;42.714;23.310;2023-02-16T09:08:02;96421.75;;;0.88;84.71
20105;BME280;10212;42.714;23.310;2023-02-16T09:18:03;96417.00;;;1.19;82.05
20105;BME280;10212;42.714;23.310;2023-02-16T09:28:04;96411.25;;;1.52;81.76
20105;BME280;10212;42.714;23.310;2023-02-16T09:38:05;96391.66;;;1.85;79.67
20105;BME280;10212;42.714;23.310;2023-02-16T09:48:20;96387.81;;;2.25;77.06
20105;BME280;10212;42.714;23.310;2023-02-16T09:58:26;96365.91;;;2.43;75.31
20105;BME280;10212;42.714;23.310;2023-02-16T10:08:33;96360.63;;;2.88;74.33
20105;BME280;10212;42.714;23.310;2023-02-16T10:18:39;96332.63;;;3.17;72.32
20105;BME280;10212;42.714;23.310;2023-02-16T10:28:49;96325.81;;;3.58;70.88
20105;BME280;10212;42.714;23.310;2023-02-16T10:39:02;96319.44;;;3.94;69.65
20105;BME280;10212;42.714;23.310;2023-02-16T10:49:10;96310.28;;;4.21;67.08
20105;BME280;10212;42.714;23.310;2023-02-16T10:59:15;96284.66;;;4.69;66.87
20105;BME280;10212;42.714;23.310;2023-02-16T11:09:16;96277.72;;;4.89;64.99
20105;BME280;10212;42.714;23.310;2023-02-16T11:19:20;96269.72;;;5.40;62.91
20105;BME280;10212;42.714;23.310;2023-02-16T11:29:21;96255.34;;;5.66;61.26
20105;BME280;10212;42.714;23.310;2023-02-16T11:39:27;96236.22;;;6.05;59.95
20105;BME280;10212;42.714;23.310;2023-02-16T11:49:36;96226.25;;;6.29;58.50
20105;BME280;10212;42.714;23.310;2023-02-16T11:59:38;96220.31;;;6.55;58.57
20105;BME280;10212;42.714;23.310;2023-02-16T12:51:26;96144.13;;;7.70;53.14
20105;BME280;10212;42.714;23.310;2023-02-16T13:01:30;96133.91;;;7.86;52.83
20105;BME280;10212;42.714;23.310;2023-02-16T13:52:42;96085.41;;;8.70;49.17
20105;BME280;10212;42.714;23.310;2023-02-16T14:02:57;96082.25;;;8.91;47.82
20105;BME280;10212;42.714;23.310;2023-02-16T14:12:58;96081.09;;;9.02;48.21
20105;BME280;10212;42.714;23.310;2023-02-16T14:23:26;96080.75;;;9.05;48.00
20105;BME280;10212;42.714;23.310;2023-02-16T14:33:41;96070.59;;;9.19;47.46
20105;BME280;10212;42.714;23.310;2023-02-16T14:43:46;96066.69;;;9.23;46.70
20105;BME280;10212;42.714;23.310;2023-02-16T15:03:57;96059.06;;;9.45;46.23
20105;BME280;10212;42.714;23.310;2023-02-16T15:14:07;96060.25;;;9.42;46.07
20105;BME280;10212;42.714;23.310;2023-02-16T15:24:20;96059.78;;;9.38;46.45
20105;BME280;10212;42.714;23.310;2023-02-16T15:34:33;96064.13;;;9.14;46.82
20105;BME280;10212;42.714;23.310;2023-02-16T15:44:35;96057.13;;;8.50;48.65
20105;BME280;10212;42.714;23.310;2023-02-16T15:54:39;96060.09;;;8.05;49.99
20105;BME280;10212;42.714;23.310;2023-02-16T16:04:45;96058.44;;;7.62;51.34
20105;BME280;10212;42.714;23.310;2023-02-16T16:15:00;96065.19;;;7.30;52.17
20105;BME280;10212;42.714;23.310;2023-02-16T16:25:02;96068.66;;;7.04;54.24
20105;BME280;10212;42.714;23.310;2023-02-16T16:35:34;96078.28;;;6.50;56.89
20105;BME280;10212;42.714;23.310;2023-02-16T16:45:46;96074.72;;;6.06;59.24
20105;BME280;10212;42.714;23.310;2023-02-16T16:55:47;96080.53;;;5.72;60.98
20105;BME280;10212;42.714;23.310;2023-02-16T17:05:47;96088.59;;;5.50;62.39
20105;BME280;10212;42.714;23.310;2023-02-16T17:26:00;96106.84;;;5.49;59.76
20105;BME280;10212;42.714;23.310;2023-02-16T17:36:02;96100.09;;;5.10;60.92
20105;BME280;10212;42.714;23.310;2023-02-16T17:46:03;96091.63;;;4.79;61.58
20105;BME280;10212;42.714;23.310;2023-02-16T17:56:05;96110.78;;;4.39;63.40
20105;BME280;10212;42.714;23.310;2023-02-16T18:06:11;96105.38;;;4.02;65.16
20105;BME280;10212;42.714;23.310;2023-02-16T18:16:14;96106.72;;;3.67;66.68
20105;BME280;10212;42.714;23.310;2023-02-16T18:26:17;96112.91;;;3.34;67.74
20105;BME280;10212;42.714;23.310;2023-02-16T18:36:19;96115.94;;;3.08;69.27
20105;BME280;10212;42.714;23.310;2023-02-16T18:46:21;96120.09;;;2.89;70.12
20105;BME280;10212;42.714;23.310;2023-02-16T18:56:22;96117.22;;;2.61;71.11
20105;BME280;10212;42.714;23.310;2023-02-16T19:06:23;96117.59;;;2.35;72.24
20105;BME280;10212;42.714;23.310;2023-02-16T19:16:25;96114.22;;;2.13;73.10
20105;BME280;10212;42.714;23.310;2023-02-16T19:26:26;96123.53;;;1.93;74.05
20105;BME280;10212;42.714;23.310;2023-02-16T19:36:28;96110.41;;;1.75;74.71
20105;BME280;10212;42.714;23.310;2023-02-16T19:46:29;96108.09;;;1.60;75.35
20105;BME280;10212;42.714;23.310;2023-02-16T19:56:32;96117.22;;;1.53;76.26
20105;BME280;10212;42.714;23.310;2023-02-16T20:06:33;96118.88;;;1.42;76.60
20105;BME280;10212;42.714;23.310;2023-02-16T20:16:38;96111.19;;;1.42;77.58
20105;BME280;10212;42.714;23.310;2023-02-16T20:26:42;96114.28;;;1.13;77.70
20105;BME280;10212;42.714;23.310;2023-02-16T20:36:43;96109.81;;;1.04;78.43
20105;BME280;10212;42.714;23.310;2023-02-16T20:46:44;96114.25;;;0.79;79.15
20105;BME280;10212;42.714;23.310;2023-02-16T20:56:44;96122.66;;;0.69;79.72
20105;BME280;10212;42.714;23.310;2023-02-16T21:06:45;96122.88;;;0.55;80.13
20105;BME280;10212;42.714;23.310;2023-02-16T21:16:45;96120.28;;;0.43;80.72
20105;BME280;10212;42.714;23.310;2023-02-16T21:26:46;96122.91;;;0.19;81.71
20105;BME280;10212;42.714;23.310;2023-02-16T21:36:46;96132.09;;;0.10;82.08
20105;BME280;10212;42.714;23.310;2023-02-16T21:46:47;96119.78;;;-0.09;82.60
20105;BME280;10212;42.714;23.310;2023-02-16T21:56:48;96126.31;;;-0.05;82.61
20105;BME280;10212;42.714;23.310;2023-02-16T22:06:50;96122.28;;;-0.21;83.22
20105;BME280;10212;42.714;23.310;2023-02-16T22:16:50;96128.88;;;-0.30;83.55
20105;BME280;10212;42.714;23.310;2023-02-16T22:26:50;96119.72;;;-0.45;84.23
20105;BME280;10212;42.714;23.310;2023-02-16T22:36:51;96132.41;;;-0.68;85.43
20105;BME280;10212;42.714;23.310;2023-02-16T22:46:51;96123.50;;;-0.76;85.42
20105;BME280;10212;42.714;23.310;2023-02-16T22:56:53;96117.91;;;-0.94;86.07
20105;BME280;10212;42.714;23.310;2023-02-16T23:06:54;96122.31;;;-0.96;86.22
20105;BME280;10212;42.714;23.310;2023-02-16T23:16:54;96128.56;;;-1.13;87.22
20105;BME280;10212;42.714;23.310;2023-02-16T23:26:54;96120.09;;;-1.27;87.91
20105;BME280;10212;42.714;23.310;2023-02-16T23:36:55;96123.16;;;-1.22;87.96
20105;BME280;10212;42.714;23.310;2023-02-16T23:46:55;96117.84;;;-1.31;87.93
20105;BME280;10212;42.714;23.310;2023-02-16T23:56:56;96113.13;;;-1.38;88.32
